sensor_id;sensor_type;location;lat;lon;timestamp;P1;durP1;ratioP1;P2;durP2;ratioP2
27424;SDS011;15244;49.088;11.886;2023-05-07T00:04:36;2.25;;;2.15;;
27424;SDS011;15244;49.088;11.886;2023-05-07T00:09:39;2.05;;;1.95;;
27424;SDS011;15244;49.088;11.886;2023-05-07T00:14:41;1.88;;;1.77;;
27424;SDS011;15244;49.088;11.886;2023-05-07T00:19:42;2.00;;;1.80;;
27424;SDS011;15244;49.088;11.886;2023-05-07T00:24:44;2.10;;;2.00;;
27424;SDS011;15244;49.088;11.886;2023-05-07T00:29:46;2.53;;;2.42;;
27424;SDS011;15244;49.088;11.886;2023-05-07T00:34:47;2.17;;;2.08;;
27424;SDS011;15244;49.088;11.886;2023-05-07T00:39:49;2.30;;;2.15;;
27424;SDS011;15244;49.088;11.886;2023-05-07T00:44:51;2.55;;;2.40;;
27424;SDS011;15244;49.088;11.886;2023-05-07T00:49:52;5.03;;;2.40;;
27424;SDS011;15244;49.088;11.886;2023-05-07T00:54:54;2.83;;;2.63;;
27424;SDS011;15244;49.088;11.886;2023-05-07T00:59:56;3.03;;;2.83;;
27424;SDS011;15244;49.088;11.886;2023-05-07T01:04:58;2.85;;;2.65;;
27424;SDS011;15244;49.088;11.886;2023-05-07T01:10:03;2.53;;;2.42;;
27424;SDS011;15244;49.088;11.886;2023-05-07T01:15:07;2.65;;;2.55;;
27424;SDS011;15244;49.088;11.886;2023-05-07T01:20:09;2.60;;;2.40;;
27424;SDS011;15244;49.088;11.886;2023-05-07T01:25:12;2.85;;;2.58;;
27424;SDS011;15244;49.088;11.886;2023-05-07T01:30:20;3.10;;;2.90;;
27424;SDS011;15244;49.088;11.886;2023-05-07T01:35:24;3.95;;;3.30;;
27424;SDS011;15244;49.088;11.886;2023-05-07T01:40:30;3.50;;;3.30;;
27424;SDS011;15244;49.088;11.886;2023-05-07T01:45:32;5.13;;;3.90;;
27424;SDS011;15244;49.088;11.886;2023-05-07T01:50:35;3.92;;;3.58;;
27424;SDS011;15244;49.088;11.886;2023-05-07T01:55:38;4.28;;;3.90;;
27424;SDS011;15244;49.088;11.886;2023-05-07T02:00:41;3.95;;;3.65;;
27424;SDS011;15244;49.088;11.886;2023-05-07T02:05:43;3.88;;;3.58;;
27424;SDS011;15244;49.088;11.886;2023-05-07T02:10:55;4.65;;;4.30;;
27424;SDS011;15244;49.088;11.886;2023-05-07T02:15:59;4.03;;;3.78;;
27424;SDS011;15244;49.088;11.886;2023-05-07T02:21:02;3.95;;;3.70;;
27424;SDS011;15244;49.088;11.886;2023-05-07T02:26:04;4.18;;;3.88;;
27424;SDS011;15244;49.088;11.886;2023-05-07T02:31:06;4.35;;;4.05;;
27424;SDS011;15244;49.088;11.886;2023-05-07T02:36:09;4.85;;;4.45;;
27424;SDS011;15244;49.088;11.886;2023-05-07T02:41:18;4.53;;;4.22;;
27424;SDS011;15244;49.088;11.886;2023-05-07T02:46:20;4.13;;;3.80;;
27424;SDS011;15244;49.088;11.886;2023-05-07T02:51:30;4.65;;;4.35;;
27424;SDS011;15244;49.088;11.886;2023-05-07T02:56:34;4.55;;;4.25;;
27424;SDS011;15244;49.088;11.886;2023-05-07T03:01:42;4.77;;;4.23;;
27424;SDS011;15244;49.088;11.886;2023-05-07T03:07:05;5.05;;;4.65;;
27424;SDS011;15244;49.088;11.886;2023-05-07T03:12:07;5.38;;;4.88;;
27424;SDS011;15244;49.088;11.886;2023-05-07T03:17:08;5.05;;;4.72;;
27424;SDS011;15244;49.088;11.886;2023-05-07T03:22:11;5.35;;;5.05;;
27424;SDS011;15244;49.088;11.886;2023-05-07T03:27:13;5.88;;;5.47;;
27424;SDS011;15244;49.088;11.886;2023-05-07T03:32:16;5.40;;;4.72;;
27424;SDS011;15244;49.088;11.886;2023-05-07T03:37:18;5.57;;;5.13;;
27424;SDS011;15244;49.088;11.886;2023-05-07T03:42:20;6.28;;;5.35;;
27424;SDS011;15244;49.088;11.886;2023-05-07T03:47:25;5.38;;;5.05;;
27424;SDS011;15244;49.088;11.886;2023-05-07T03:52:27;5.50;;;5.20;;
27424;SDS011;15244;49.088;11.886;2023-05-07T03:57:32;5.57;;;5.18;;
27424;SDS011;15244;49.088;11.886;2023-05-07T04:02:33;5.88;;;5.32;;
27424;SDS011;15244;49.088;11.886;2023-05-07T04:07:37;5.68;;;5.28;;
27424;SDS011;15244;49.088;11.886;2023-05-07T04:12:42;5.90;;;5.40;;
27424;SDS011;15244;49.088;11.886;2023-05-07T04:17:49;6.20;;;5.80;;
27424;SDS011;15244;49.088;11.886;2023-05-07T04:22:55;5.55;;;5.15;;
27424;SDS011;15244;49.088;11.886;2023-05-07T04:28:00;5.40;;;5.05;;
27424;SDS011;15244;49.088;11.886;2023-05-07T04:33:03;5.55;;;5.15;;
27424;SDS011;15244;49.088;11.886;2023-05-07T04:38:05;7.68;;;5.90;;
27424;SDS011;15244;49.088;11.886;2023-05-07T04:43:10;6.00;;;5.60;;
27424;SDS011;15244;49.088;11.886;2023-05-07T04:48:18;6.68;;;5.97;;
27424;SDS011;15244;49.088;11.886;2023-05-07T04:53:25;5.82;;;5.43;;
27424;SDS011;15244;49.088;11.886;2023-05-07T04:58:29;6.18;;;5.65;;
27424;SDS011;15244;49.088;11.886;2023-05-07T05:03:35;6.15;;;5.70;;
27424;SDS011;15244;49.088;11.886;2023-05-07T05:08:38;6.28;;;5.88;;
27424;SDS011;15244;49.088;11.886;2023-05-07T05:13:44;6.70;;;6.20;;
27424;SDS011;15244;49.088;11.886;2023-05-07T05:18:51;6.80;;;6.30;;
27424;SDS011;15244;49.088;11.886;2023-05-07T05:23:55;9.75;;;7.40;;
27424;SDS011;15244;49.088;11.886;2023-05-07T05:28:59;6.70;;;6.20;;
27424;SDS011;15244;49.088;11.886;2023-05-07T05:34:03;5.80;;;5.45;;
27424;SDS011;15244;49.088;11.886;2023-05-07T05:39:05;6.18;;;5.68;;
27424;SDS011;15244;49.088;11.886;2023-05-07T05:44:13;6.70;;;6.20;;
27424;SDS011;15244;49.088;11.886;2023-05-07T05:49:16;6.65;;;6.15;;
27424;SDS011;15244;49.088;11.886;2023-05-07T05:54:18;7.47;;;6.78;;
27424;SDS011;15244;49.088;11.886;2023-05-07T05:59:19;7.10;;;6.50;;
27424;SDS011;15244;49.088;11.886;2023-05-07T06:04:21;6.38;;;5.82;;
27424;SDS011;15244;49.088;11.886;2023-05-07T06:09:25;7.18;;;6.47;;
27424;SDS011;15244;49.088;11.886;2023-05-07T06:14:30;7.35;;;6.15;;
27424;SDS011;15244;49.088;11.886;2023-05-07T06:19:32;6.82;;;6.28;;
27424;SDS011;15244;49.088;11.886;2023-05-07T06:24:35;6.25;;;5.85;;
27424;SDS011;15244;49.088;11.886;2023-05-07T06:29:39;6.80;;;6.30;;
27424;SDS011;15244;49.088;11.886;2023-05-07T06:34:47;7.33;;;6.63;;
27424;SDS011;15244;49.088;11.886;2023-05-07T06:39:49;6.40;;;5.95;;
27424;SDS011;15244;49.088;11.886;2023-05-07T06:44:51;6.97;;;6.38;;
27424;SDS011;15244;49.088;11.886;2023-05-07T06:49:54;6.40;;;6.00;;
27424;SDS011;15244;49.088;11.886;2023-05-07T06:55:00;6.57;;;6.00;;
27424;SDS011;15244;49.088;11.886;2023-05-07T07:00:08;6.63;;;6.10;;
27424;SDS011;15244;49.088;11.886;2023-05-07T07:05:21;6.22;;;5.80;;
27424;SDS011;15244;49.088;11.886;2023-05-07T07:10:27;7.03;;;6.43;;
27424;SDS011;15244;49.088;11.886;2023-05-07T07:15:30;6.57;;;6.15;;
27424;SDS011;15244;49.088;11.886;2023-05-07T07:20:32;5.65;;;5.25;;
27424;SDS011;15244;49.088;11.886;2023-05-07T07:25:34;6.40;;;5.90;;
27424;SDS011;15244;49.088;11.886;2023-05-07T07:30:43;6.07;;;5.60;;
27424;SDS011;15244;49.088;11.886;2023-05-07T07:35:46;5.82;;;5.47;;
27424;SDS011;15244;49.088;11.886;2023-05-07T07:40:54;6.88;;;6.38;;
27424;SDS011;15244;49.088;11.886;2023-05-07T07:45:58;5.82;;;5.25;;
27424;SDS011;15244;49.088;11.886;2023-05-07T07:51:07;6.40;;;5.80;;
27424;SDS011;15244;49.088;11.886;2023-05-07T07:56:11;6.07;;;5.60;;
27424;SDS011;15244;49.088;11.886;2023-05-07T08:01:15;6.25;;;5.65;;
27424;SDS011;15244;49.088;11.886;2023-05-07T08:06:21;5.13;;;4.82;;
27424;SDS011;15244;49.088;11.886;2023-05-07T08:11:23;6.97;;;6.43;;
27424;SDS011;15244;49.088;11.886;2023-05-07T08:16:28;5.68;;;5.18;;
27424;SDS011;15244;49.088;11.886;2023-05-07T08:21:33;4.50;;;4.25;;
27424;SDS011;15244;49.088;11.886;2023-05-07T08:26:36;4.80;;;4.50;;
27424;SDS011;15244;49.088;11.886;2023-05-07T08:31:43;5.60;;;4.68;;
27424;SDS011;15244;49.088;11.886;2023-05-07T08:36:51;5.43;;;4.93;;
27424;SDS011;15244;49.088;11.886;2023-05-07T08:42:00;5.23;;;4.83;;
27424;SDS011;15244;49.088;11.886;2023-05-07T08:47:04;4.95;;;4.60;;
27424;SDS011;15244;49.088;11.886;2023-05-07T08:52:16;4.90;;;4.50;;
27424;SDS011;15244;49.088;11.886;2023-05-07T08:57:19;4.78;;;4.47;;
27424;SDS011;15244;49.088;11.886;2023-05-07T09:02:24;4.90;;;4.63;;
27424;SDS011;15244;49.088;11.886;2023-05-07T09:07:27;5.47;;;4.97;;
27424;SDS011;15244;49.088;11.886;2023-05-07T09:12:33;4.88;;;4.57;;
27424;SDS011;15244;49.088;11.886;2023-05-07T09:22:56;4.28;;;3.88;;
27424;SDS011;15244;49.088;11.886;2023-05-07T09:28:01;5.05;;;4.65;;
27424;SDS011;15244;49.088;11.886;2023-05-07T09:33:09;5.03;;;4.72;;
27424;SDS011;15244;49.088;11.886;2023-05-07T09:38:14;4.63;;;4.32;;
27424;SDS011;15244;49.088;11.886;2023-05-07T09:43:31;3.67;;;3.47;;
27424;SDS011;15244;49.088;11.886;2023-05-07T09:48:35;5.00;;;4.40;;
27424;SDS011;15244;49.088;11.886;2023-05-07T09:53:39;5.03;;;4.72;;
27424;SDS011;15244;49.088;11.886;2023-05-07T09:58:43;3.83;;;3.63;;
27424;SDS011;15244;49.088;11.886;2023-05-07T10:03:46;5.47;;;4.85;;
27424;SDS011;15244;49.088;11.886;2023-05-07T10:08:50;5.32;;;4.82;;
27424;SDS011;15244;49.088;11.886;2023-05-07T10:13:53;5.07;;;4.68;;
27424;SDS011;15244;49.088;11.886;2023-05-07T10:18:55;4.32;;;4.03;;
27424;SDS011;15244;49.088;11.886;2023-05-07T10:24:03;3.97;;;3.78;;
27424;SDS011;15244;49.088;11.886;2023-05-07T10:29:21;4.13;;;3.83;;
27424;SDS011;15244;49.088;11.886;2023-05-07T10:34:35;3.90;;;3.60;;
27424;SDS011;15244;49.088;11.886;2023-05-07T10:39:39;3.80;;;3.50;;
27424;SDS011;15244;49.088;11.886;2023-05-07T10:44:42;4.07;;;3.47;;
27424;SDS011;15244;49.088;11.886;2023-05-07T11:00:40;3.35;;;3.15;;
27424;SDS011;15244;49.088;11.886;2023-05-07T11:05:47;2.80;;;2.60;;
27424;SDS011;15244;49.088;11.886;2023-05-07T11:11:44;4.05;;;3.15;;
27424;SDS011;15244;49.088;11.886;2023-05-07T11:17:14;3.70;;;3.40;;
27424;SDS011;15244;49.088;11.886;2023-05-07T11:27:54;2.92;;;2.72;;
27424;SDS011;15244;49.088;11.886;2023-05-07T11:32:57;2.50;;;2.40;;
27424;SDS011;15244;49.088;11.886;2023-05-07T11:37:59;2.72;;;2.63;;
27424;SDS011;15244;49.088;11.886;2023-05-07T11:43:12;3.47;;;3.25;;
27424;SDS011;15244;49.088;11.886;2023-05-07T11:48:14;4.18;;;2.72;;
27424;SDS011;15244;49.088;11.886;2023-05-07T11:53:16;2.45;;;2.25;;
27424;SDS011;15244;49.088;11.886;2023-05-07T11:58:22;3.13;;;2.92;;
27424;SDS011;15244;49.088;11.886;2023-05-07T12:03:24;3.72;;;3.42;;
27424;SDS011;15244;49.088;11.886;2023-05-07T12:08:28;3.05;;;2.85;;
27424;SDS011;15244;49.088;11.886;2023-05-07T12:13:29;3.15;;;2.95;;
27424;SDS011;15244;49.088;11.886;2023-05-07T12:18:31;3.00;;;2.80;;
27424;SDS011;15244;49.088;11.886;2023-05-07T12:23:33;2.65;;;2.55;;
27424;SDS011;15244;49.088;11.886;2023-05-07T12:28:37;2.55;;;2.45;;
27424;SDS011;15244;49.088;11.886;2023-05-07T12:33:40;3.13;;;2.92;;
27424;SDS011;15244;49.088;11.886;2023-05-07T12:38:41;2.50;;;2.30;;
27424;SDS011;15244;49.088;11.886;2023-05-07T12:43:46;2.03;;;1.92;;
27424;SDS011;15244;49.088;11.886;2023-05-07T12:48:48;2.97;;;2.17;;
27424;SDS011;15244;49.088;11.886;2023-05-07T12:53:49;2.20;;;2.10;;
27424;SDS011;15244;49.088;11.886;2023-05-07T12:58:52;1.90;;;1.80;;
27424;SDS011;15244;49.088;11.886;2023-05-07T13:04:02;2.40;;;2.20;;
27424;SDS011;15244;49.088;11.886;2023-05-07T13:09:04;1.70;;;1.60;;
27424;SDS011;15244;49.088;11.886;2023-05-07T13:14:06;2.30;;;2.08;;
27424;SDS011;15244;49.088;11.886;2023-05-07T13:19:07;2.00;;;1.90;;
27424;SDS011;15244;49.088;11.886;2023-05-07T13:24:09;1.70;;;1.60;;
27424;SDS011;15244;49.088;11.886;2023-05-07T13:29:11;1.90;;;1.80;;
27424;SDS011;15244;49.088;11.886;2023-05-07T13:34:12;1.83;;;1.00;;
27424;SDS011;15244;49.088;11.886;2023-05-07T13:39:14;1.30;;;1.20;;
27424;SDS011;15244;49.088;11.886;2023-05-07T13:44:15;1.00;;;1.00;;
27424;SDS011;15244;49.088;11.886;2023-05-07T13:49:17;1.25;;;1.15;;
27424;SDS011;15244;49.088;11.886;2023-05-07T13:54:18;1.30;;;1.30;;
27424;SDS011;15244;49.088;11.886;2023-05-07T13:59:20;1.52;;;1.42;;
27424;SDS011;15244;49.088;11.886;2023-05-07T14:04:22;1.60;;;1.50;;
27424;SDS011;15244;49.088;11.886;2023-05-07T14:09:23;2.30;;;1.67;;
27424;SDS011;15244;49.088;11.886;2023-05-07T14:14:25;1.38;;;1.27;;
27424;SDS011;15244;49.088;11.886;2023-05-07T14:19:26;1.60;;;1.38;;
27424;SDS011;15244;49.088;11.886;2023-05-07T14:24:28;1.60;;;1.50;;
27424;SDS011;15244;49.088;11.886;2023-05-07T14:29:39;2.35;;;1.77;;
27424;SDS011;15244;49.088;11.886;2023-05-07T14:34:40;2.10;;;1.98;;
27424;SDS011;15244;49.088;11.886;2023-05-07T14:39:42;1.92;;;1.83;;
27424;SDS011;15244;49.088;11.886;2023-05-07T14:44:44;2.15;;;1.60;;
27424;SDS011;15244;49.088;11.886;2023-05-07T14:49:46;1.70;;;1.60;;
27424;SDS011;15244;49.088;11.886;2023-05-07T14:54:48;2.28;;;2.00;;
27424;SDS011;15244;49.088;11.886;2023-05-07T14:59:50;2.97;;;2.80;;
27424;SDS011;15244;49.088;11.886;2023-05-07T15:04:51;2.72;;;2.58;;
27424;SDS011;15244;49.088;11.886;2023-05-07T15:09:54;3.72;;;3.10;;
27424;SDS011;15244;49.088;11.886;2023-05-07T15:14:56;3.58;;;3.38;;
27424;SDS011;15244;49.088;11.886;2023-05-07T15:19:58;3.42;;;3.13;;
27424;SDS011;15244;49.088;11.886;2023-05-07T15:24:59;3.83;;;3.50;;
27424;SDS011;15244;49.088;11.886;2023-05-07T15:30:01;3.35;;;3.15;;
27424;SDS011;15244;49.088;11.886;2023-05-07T15:35:05;3.45;;;3.25;;
27424;SDS011;15244;49.088;11.886;2023-05-07T15:40:07;3.42;;;3.20;;
27424;SDS011;15244;49.088;11.886;2023-05-07T15:45:09;3.47;;;3.28;;
27424;SDS011;15244;49.088;11.886;2023-05-07T15:50:12;3.40;;;3.20;;
27424;SDS011;15244;49.088;11.886;2023-05-07T15:55:13;3.35;;;3.15;;
27424;SDS011;15244;49.088;11.886;2023-05-07T16:00:15;3.10;;;2.90;;
27424;SDS011;15244;49.088;11.886;2023-05-07T16:05:18;3.08;;;2.85;;
27424;SDS011;15244;49.088;11.886;2023-05-07T16:10:20;3.08;;;2.88;;
27424;SDS011;15244;49.088;11.886;2023-05-07T16:15:22;2.97;;;2.78;;
27424;SDS011;15244;49.088;11.886;2023-05-07T16:20:26;3.15;;;2.90;;
27424;SDS011;15244;49.088;11.886;2023-05-07T16:25:31;2.92;;;2.83;;
27424;SDS011;15244;49.088;11.886;2023-05-07T16:30:33;3.13;;;2.95;;
27424;SDS011;15244;49.088;11.886;2023-05-07T16:35:34;3.78;;;3.47;;
27424;SDS011;15244;49.088;11.886;2023-05-07T16:40:36;3.60;;;3.30;;
27424;SDS011;15244;49.088;11.886;2023-05-07T16:45:39;3.72;;;3.53;;
27424;SDS011;15244;49.088;11.886;2023-05-07T16:50:41;3.80;;;3.50;;
27424;SDS011;15244;49.088;11.886;2023-05-07T16:55:44;4.00;;;3.70;;
27424;SDS011;15244;49.088;11.886;2023-05-07T17:00:46;3.65;;;3.38;;
27424;SDS011;15244;49.088;11.886;2023-05-07T17:05:51;4.38;;;4.07;;
27424;SDS011;15244;49.088;11.886;2023-05-07T17:10:52;4.38;;;4.07;;
27424;SDS011;15244;49.088;11.886;2023-05-07T17:15:54;4.68;;;4.38;;
27424;SDS011;15244;49.088;11.886;2023-05-07T17:20:56;5.07;;;4.78;;
27424;SDS011;15244;49.088;11.886;2023-05-07T17:25:57;5.35;;;4.95;;
27424;SDS011;15244;49.088;11.886;2023-05-07T17:30:59;4.80;;;4.50;;
27424;SDS011;15244;49.088;11.886;2023-05-07T17:36:00;5.25;;;4.85;;
27424;SDS011;15244;49.088;11.886;2023-05-07T17:41:03;4.78;;;4.47;;
27424;SDS011;15244;49.088;11.886;2023-05-07T17:46:05;5.65;;;5.18;;
27424;SDS011;15244;49.088;11.886;2023-05-07T17:51:09;4.93;;;4.63;;
27424;SDS011;15244;49.088;11.886;2023-05-07T17:56:10;4.88;;;4.53;;
27424;SDS011;15244;49.088;11.886;2023-05-07T18:01:12;4.78;;;4.47;;
27424;SDS011;15244;49.088;11.886;2023-05-07T18:06:14;4.95;;;4.65;;
27424;SDS011;15244;49.088;11.886;2023-05-07T18:11:19;5.53;;;5.03;;
27424;SDS011;15244;49.088;11.886;2023-05-07T18:16:22;4.68;;;4.30;;
27424;SDS011;15244;49.088;11.886;2023-05-07T18:21:23;5.45;;;4.90;;
27424;SDS011;15244;49.088;11.886;2023-05-07T18:26:25;4.60;;;4.30;;
27424;SDS011;15244;49.088;11.886;2023-05-07T18:31:27;5.35;;;4.40;;
27424;SDS011;15244;49.088;11.886;2023-05-07T18:36:29;6.45;;;5.60;;
27424;SDS011;15244;49.088;11.886;2023-05-07T18:41:31;7.15;;;5.88;;
27424;SDS011;15244;49.088;11.886;2023-05-07T18:46:32;5.25;;;4.95;;
27424;SDS011;15244;49.088;11.886;2023-05-07T18:51:34;5.30;;;4.80;;
27424;SDS011;15244;49.088;11.886;2023-05-07T18:56:36;4.22;;;4.03;;
27424;SDS011;15244;49.088;11.886;2023-05-07T19:01:37;5.25;;;4.95;;
27424;SDS011;15244;49.088;11.886;2023-05-07T19:06:39;4.65;;;4.35;;
27424;SDS011;15244;49.088;11.886;2023-05-07T19:11:41;5.13;;;4.82;;
27424;SDS011;15244;49.088;11.886;2023-05-07T19:16:42;5.63;;;5.13;;
27424;SDS011;15244;49.088;11.886;2023-05-07T19:21:44;5.18;;;4.88;;
27424;SDS011;15244;49.088;11.886;2023-05-07T19:26:46;5.50;;;5.10;;
27424;SDS011;15244;49.088;11.886;2023-05-07T19:31:47;4.82;;;4.47;;
27424;SDS011;15244;49.088;11.886;2023-05-07T19:36:49;5.20;;;4.90;;
27424;SDS011;15244;49.088;11.886;2023-05-07T19:41:51;5.45;;;5.05;;
27424;SDS011;15244;49.088;11.886;2023-05-07T19:46:53;4.90;;;4.60;;
27424;SDS011;15244;49.088;11.886;2023-05-07T19:51:54;5.03;;;4.60;;
27424;SDS011;15244;49.088;11.886;2023-05-07T19:56:57;4.82;;;4.60;;
27424;SDS011;15244;49.088;11.886;2023-05-07T20:01:59;4.80;;;4.50;;
27424;SDS011;15244;49.088;11.886;2023-05-07T20:07:00;4.90;;;4.60;;
27424;SDS011;15244;49.088;11.886;2023-05-07T20:12:02;4.50;;;4.20;;
27424;SDS011;15244;49.088;11.886;2023-05-07T20:17:04;5.13;;;4.72;;
27424;SDS011;15244;49.088;11.886;2023-05-07T20:22:05;5.03;;;4.72;;
27424;SDS011;15244;49.088;11.886;2023-05-07T20:27:07;4.28;;;3.97;;
27424;SDS011;15244;49.088;11.886;2023-05-07T20:32:09;5.25;;;4.82;;
27424;SDS011;15244;49.088;11.886;2023-05-07T20:37:13;4.47;;;4.18;;
27424;SDS011;15244;49.088;11.886;2023-05-07T20:42:16;5.45;;;5.05;;
27424;SDS011;15244;49.088;11.886;2023-05-07T20:47:17;5.35;;;4.95;;
27424;SDS011;15244;49.088;11.886;2023-05-07T20:52:19;5.20;;;4.82;;
27424;SDS011;15244;49.088;11.886;2023-05-07T20:57:20;4.57;;;4.28;;
27424;SDS011;15244;49.088;11.886;2023-05-07T21:02:22;4.55;;;4.25;;
27424;SDS011;15244;49.088;11.886;2023-05-07T21:07:24;4.18;;;3.97;;
27424;SDS011;15244;49.088;11.886;2023-05-07T21:12:25;4.53;;;4.22;;
27424;SDS011;15244;49.088;11.886;2023-05-07T21:17:27;4.78;;;4.47;;
27424;SDS011;15244;49.088;11.886;2023-05-07T21:22:31;4.55;;;4.25;;
27424;SDS011;15244;49.088;11.886;2023-05-07T21:27:33;4.57;;;4.28;;
27424;SDS011;15244;49.088;11.886;2023-05-07T21:32:35;4.38;;;4.10;;
27424;SDS011;15244;49.088;11.886;2023-05-07T21:37:36;5.25;;;4.28;;
27424;SDS011;15244;49.088;11.886;2023-05-07T21:42:38;4.50;;;4.10;;
27424;SDS011;15244;49.088;11.886;2023-05-07T21:47:40;7.40;;;4.53;;
27424;SDS011;15244;49.088;11.886;2023-05-07T21:52:41;4.13;;;3.83;;
27424;SDS011;15244;49.088;11.886;2023-05-07T21:57:43;5.05;;;4.55;;
27424;SDS011;15244;49.088;11.886;2023-05-07T22:03:02;4.00;;;3.80;;
27424;SDS011;15244;49.088;11.886;2023-05-07T22:08:04;4.28;;;3.95;;
27424;SDS011;15244;49.088;11.886;2023-05-07T22:13:05;4.05;;;3.75;;
27424;SDS011;15244;49.088;11.886;2023-05-07T22:18:07;3.67;;;3.47;;
27424;SDS011;15244;49.088;11.886;2023-05-07T22:23:09;4.05;;;3.85;;
27424;SDS011;15244;49.088;11.886;2023-05-07T22:28:10;3.70;;;3.50;;
27424;SDS011;15244;49.088;11.886;2023-05-07T22:33:12;3.58;;;3.38;;
27424;SDS011;15244;49.088;11.886;2023-05-07T22:38:13;3.53;;;3.33;;
27424;SDS011;15244;49.088;11.886;2023-05-07T22:43:15;3.95;;;3.75;;
27424;SDS011;15244;49.088;11.886;2023-05-07T22:48:16;3.63;;;3.42;;
27424;SDS011;15244;49.088;11.886;2023-05-07T22:53:18;4.80;;;4.50;;
27424;SDS011;15244;49.088;11.886;2023-05-07T22:58:20;3.97;;;3.78;;
27424;SDS011;15244;49.088;11.886;2023-05-07T23:03:21;4.03;;;3.80;;
27424;SDS011;15244;49.088;11.886;2023-05-07T23:08:23;4.55;;;3.67;;
27424;SDS011;15244;49.088;11.886;2023-05-07T23:13:25;3.65;;;3.35;;
27424;SDS011;15244;49.088;11.886;2023-05-07T23:18:27;4.82;;;4.43;;
27424;SDS011;15244;49.088;11.886;2023-05-07T23:23:32;4.82;;;4.53;;
27424;SDS011;15244;49.088;11.886;2023-05-07T23:28:34;4.60;;;4.30;;
27424;SDS011;15244;49.088;11.886;2023-05-07T23:33:36;4.20;;;4.00;;
27424;SDS011;15244;49.088;11.886;2023-05-07T23:38:37;4.55;;;4.25;;
27424;SDS011;15244;49.088;11.886;2023-05-07T23:43:39;4.93;;;4.50;;
27424;SDS011;15244;49.088;11.886;2023-05-07T23:48:40;5.15;;;4.72;;
27424;SDS011;15244;49.088;11.886;2023-05-07T23:53:42;4.57;;;4.30;;
27424;SDS011;15244;49.088;11.886;2023-05-07T23:58:44;5.07;;;4.78;;
